sensor_id;sensor_type;location;lat;lon;timestamp;temperature;humidity
68433;DHT22;55412;51.350;17.056;2022-11-04T00:01:58;9.70;72.60
68433;DHT22;55412;51.350;17.056;2022-11-04T00:04:27;9.70;72.80
68433;DHT22;55412;51.350;17.056;2022-11-04T00:06:54;9.60;72.90
68433;DHT22;55412;51.350;17.056;2022-11-04T00:09:23;9.70;73.10
68433;DHT22;55412;51.350;17.056;2022-11-04T00:11:51;9.70;73.10
68433;DHT22;55412;51.350;17.056;2022-11-04T00:14:36;9.70;73.00
68433;DHT22;55412;51.350;17.056;2022-11-04T00:17:03;9.70;73.30
68433;DHT22;55412;51.350;17.056;2022-11-04T00:19:51;9.60;73.40
68433;DHT22;55412;51.350;17.056;2022-11-04T00:22:38;9.60;73.50
68433;DHT22;55412;51.350;17.056;2022-11-04T00:25:24;9.60;73.60
68433;DHT22;55412;51.350;17.056;2022-11-04T00:28:26;9.60;73.80
68433;DHT22;55412;51.350;17.056;2022-11-04T00:31:08;9.60;73.90
68433;DHT22;55412;51.350;17.056;2022-11-04T00:33:55;9.70;73.70
68433;DHT22;55412;51.350;17.056;2022-11-04T00:36:23;9.70;73.80
68433;DHT22;55412;51.350;17.056;2022-11-04T00:38:50;9.70;73.70
68433;DHT22;55412;51.350;17.056;2022-11-04T00:41:16;9.80;73.90
68433;DHT22;55412;51.350;17.056;2022-11-04T00:44:02;9.80;73.70
68433;DHT22;55412;51.350;17.056;2022-11-04T00:46:31;9.80;73.80
68433;DHT22;55412;51.350;17.056;2022-11-04T00:48:58;9.90;73.60
68433;DHT22;55412;51.350;17.056;2022-11-04T00:51:27;9.90;73.70
68433;DHT22;55412;51.350;17.056;2022-11-04T00:53:53;9.90;73.70
68433;DHT22;55412;51.350;17.056;2022-11-04T00:56:22;9.90;73.90
68433;DHT22;55412;51.350;17.056;2022-11-04T00:58:48;9.90;73.80
68433;DHT22;55412;51.350;17.056;2022-11-04T01:01:16;9.90;73.80
68433;DHT22;55412;51.350;17.056;2022-11-04T01:03:44;9.90;74.00
68433;DHT22;55412;51.350;17.056;2022-11-04T01:06:11;9.90;73.90
68433;DHT22;55412;51.350;17.056;2022-11-04T01:08:37;9.90;73.80
68433;DHT22;55412;51.350;17.056;2022-11-04T01:11:04;9.90;73.80
68433;DHT22;55412;51.350;17.056;2022-11-04T01:13:32;9.90;73.90
68433;DHT22;55412;51.350;17.056;2022-11-04T01:15:59;9.90;73.90
68433;DHT22;55412;51.350;17.056;2022-11-04T01:18:26;9.90;74.00
68433;DHT22;55412;51.350;17.056;2022-11-04T01:20:52;9.90;73.90
68433;DHT22;55412;51.350;17.056;2022-11-04T01:23:18;9.90;74.10
68433;DHT22;55412;51.350;17.056;2022-11-04T01:25:45;9.90;74.10
68433;DHT22;55412;51.350;17.056;2022-11-04T01:28:11;9.90;74.00
68433;DHT22;55412;51.350;17.056;2022-11-04T01:30:37;9.90;74.30
68433;DHT22;55412;51.350;17.056;2022-11-04T01:33:12;9.90;74.20
68433;DHT22;55412;51.350;17.056;2022-11-04T01:35:38;9.90;74.30
68433;DHT22;55412;51.350;17.056;2022-11-04T01:38:04;10.00;74.20
68433;DHT22;55412;51.350;17.056;2022-11-04T01:40:38;10.00;74.10
68433;DHT22;55412;51.350;17.056;2022-11-04T01:43:16;10.00;74.10
68433;DHT22;55412;51.350;17.056;2022-11-04T01:45:52;10.00;74.20
68433;DHT22;55412;51.350;17.056;2022-11-04T01:48:35;10.00;74.20
68433;DHT22;55412;51.350;17.056;2022-11-04T01:51:02;10.00;74.30
68433;DHT22;55412;51.350;17.056;2022-11-04T01:53:36;10.00;74.30
68433;DHT22;55412;51.350;17.056;2022-11-04T01:56:07;10.00;74.30
68433;DHT22;55412;51.350;17.056;2022-11-04T01:58:38;10.00;74.40
68433;DHT22;55412;51.350;17.056;2022-11-04T02:01:11;10.00;74.30
68433;DHT22;55412;51.350;17.056;2022-11-04T02:03:51;10.00;74.40
68433;DHT22;55412;51.350;17.056;2022-11-04T02:06:20;10.00;74.60
68433;DHT22;55412;51.350;17.056;2022-11-04T02:08:47;9.90;75.00
68433;DHT22;55412;51.350;17.056;2022-11-04T02:11:14;9.90;74.90
68433;DHT22;55412;51.350;17.056;2022-11-04T02:14:00;9.90;75.10
68433;DHT22;55412;51.350;17.056;2022-11-04T02:16:40;9.90;75.20
68433;DHT22;55412;51.350;17.056;2022-11-04T02:30:33;10.10;75.30
68433;DHT22;55412;51.350;17.056;2022-11-04T02:33:36;10.10;75.10
68433;DHT22;55412;51.350;17.056;2022-11-04T02:39:17;10.10;75.50
68433;DHT22;55412;51.350;17.056;2022-11-04T02:42:12;10.10;75.30
68433;DHT22;55412;51.350;17.056;2022-11-04T02:45:15;10.10;75.40
68433;DHT22;55412;51.350;17.056;2022-11-04T02:47:48;10.20;75.40
68433;DHT22;55412;51.350;17.056;2022-11-04T02:50:31;10.20;75.20
68433;DHT22;55412;51.350;17.056;2022-11-04T02:53:03;10.20;75.20
68433;DHT22;55412;51.350;17.056;2022-11-04T02:55:38;10.20;75.20
68433;DHT22;55412;51.350;17.056;2022-11-04T02:58:13;10.20;75.20
68433;DHT22;55412;51.350;17.056;2022-11-04T03:00:44;10.10;75.50
68433;DHT22;55412;51.350;17.056;2022-11-04T03:03:18;10.00;76.00
68433;DHT22;55412;51.350;17.056;2022-11-04T03:05:50;9.90;76.10
68433;DHT22;55412;51.350;17.056;2022-11-04T03:08:26;9.90;76.60
68433;DHT22;55412;51.350;17.056;2022-11-04T03:11:05;9.80;76.60
68433;DHT22;55412;51.350;17.056;2022-11-04T03:16:35;9.70;76.70
68433;DHT22;55412;51.350;17.056;2022-11-04T03:19:13;9.70;77.10
68433;DHT22;55412;51.350;17.056;2022-11-04T03:22:33;9.70;77.00
68433;DHT22;55412;51.350;17.056;2022-11-04T03:24:44;9.80;76.80
68433;DHT22;55412;51.350;17.056;2022-11-04T03:30:21;9.90;76.40
68433;DHT22;55412;51.350;17.056;2022-11-04T03:35:51;9.80;76.40
68433;DHT22;55412;51.350;17.056;2022-11-04T03:38:17;9.70;76.30
68433;DHT22;55412;51.350;17.056;2022-11-04T03:40:45;9.70;76.50
68433;DHT22;55412;51.350;17.056;2022-11-04T03:43:17;9.70;76.70
68433;DHT22;55412;51.350;17.056;2022-11-04T03:45:54;9.60;77.20
68433;DHT22;55412;51.350;17.056;2022-11-04T03:48:21;9.70;77.40
68433;DHT22;55412;51.350;17.056;2022-11-04T03:50:48;9.70;77.10
68433;DHT22;55412;51.350;17.056;2022-11-04T03:53:19;9.70;77.30
68433;DHT22;55412;51.350;17.056;2022-11-04T03:59:24;9.70;77.10
68433;DHT22;55412;51.350;17.056;2022-11-04T04:02:15;9.70;77.10
68433;DHT22;55412;51.350;17.056;2022-11-04T04:04:59;9.70;77.30
68433;DHT22;55412;51.350;17.056;2022-11-04T04:07:36;9.60;77.10
68433;DHT22;55412;51.350;17.056;2022-11-04T04:10:16;9.50;77.40
68433;DHT22;55412;51.350;17.056;2022-11-04T04:16:09;9.20;77.90
68433;DHT22;55412;51.350;17.056;2022-11-04T04:18:39;9.10;78.60
68433;DHT22;55412;51.350;17.056;2022-11-04T04:21:13;9.00;78.60
68433;DHT22;55412;51.350;17.056;2022-11-04T04:23:42;9.00;79.30
68433;DHT22;55412;51.350;17.056;2022-11-04T04:26:30;9.10;79.00
68433;DHT22;55412;51.350;17.056;2022-11-04T04:29:17;9.20;79.30
68433;DHT22;55412;51.350;17.056;2022-11-04T04:31:46;9.30;79.30
68433;DHT22;55412;51.350;17.056;2022-11-04T04:34:28;9.30;79.10
68433;DHT22;55412;51.350;17.056;2022-11-04T04:42:36;9.50;79.00
68433;DHT22;55412;51.350;17.056;2022-11-04T04:45:33;9.50;78.90
68433;DHT22;55412;51.350;17.056;2022-11-04T04:48:02;9.60;78.70
68433;DHT22;55412;51.350;17.056;2022-11-04T04:50:34;9.60;78.80
68433;DHT22;55412;51.350;17.056;2022-11-04T04:53:02;9.70;78.80
68433;DHT22;55412;51.350;17.056;2022-11-04T04:55:30;9.70;78.70
68433;DHT22;55412;51.350;17.056;2022-11-04T04:57:57;9.80;78.60
68433;DHT22;55412;51.350;17.056;2022-11-04T05:00:24;9.80;78.50
68433;DHT22;55412;51.350;17.056;2022-11-04T05:02:50;9.80;78.50
68433;DHT22;55412;51.350;17.056;2022-11-04T05:05:17;9.80;78.60
68433;DHT22;55412;51.350;17.056;2022-11-04T05:07:49;9.80;78.80
68433;DHT22;55412;51.350;17.056;2022-11-04T05:10:16;9.80;78.80
68433;DHT22;55412;51.350;17.056;2022-11-04T05:12:43;9.80;78.90
68433;DHT22;55412;51.350;17.056;2022-11-04T05:15:28;9.80;78.90
68433;DHT22;55412;51.350;17.056;2022-11-04T05:17:59;9.70;78.80
68433;DHT22;55412;51.350;17.056;2022-11-04T05:20:26;9.70;79.30
68433;DHT22;55412;51.350;17.056;2022-11-04T05:22:53;9.70;79.40
68433;DHT22;55412;51.350;17.056;2022-11-04T05:25:19;9.70;79.40
68433;DHT22;55412;51.350;17.056;2022-11-04T05:27:46;9.70;79.60
68433;DHT22;55412;51.350;17.056;2022-11-04T05:30:12;9.70;79.50
68433;DHT22;55412;51.350;17.056;2022-11-04T05:32:38;9.80;79.40
68433;DHT22;55412;51.350;17.056;2022-11-04T05:35:04;9.90;79.30
68433;DHT22;55412;51.350;17.056;2022-11-04T05:37:30;9.90;79.20
68433;DHT22;55412;51.350;17.056;2022-11-04T05:39:56;9.90;79.10
68433;DHT22;55412;51.350;17.056;2022-11-04T05:42:23;9.90;79.00
68433;DHT22;55412;51.350;17.056;2022-11-04T05:44:49;9.90;79.10
68433;DHT22;55412;51.350;17.056;2022-11-04T05:47:15;9.90;79.20
68433;DHT22;55412;51.350;17.056;2022-11-04T05:49:41;9.90;79.10
68433;DHT22;55412;51.350;17.056;2022-11-04T05:52:07;9.90;79.00
68433;DHT22;55412;51.350;17.056;2022-11-04T05:54:36;9.90;79.30
68433;DHT22;55412;51.350;17.056;2022-11-04T05:57:03;9.90;79.10
68433;DHT22;55412;51.350;17.056;2022-11-04T05:59:30;9.90;79.10
68433;DHT22;55412;51.350;17.056;2022-11-04T06:01:55;9.90;79.20
68433;DHT22;55412;51.350;17.056;2022-11-04T06:04:21;9.90;79.30
68433;DHT22;55412;51.350;17.056;2022-11-04T06:06:47;10.00;79.20
68433;DHT22;55412;51.350;17.056;2022-11-04T06:09:13;10.00;79.00
68433;DHT22;55412;51.350;17.056;2022-11-04T06:11:39;10.10;79.00
68433;DHT22;55412;51.350;17.056;2022-11-04T06:14:05;10.10;78.90
68433;DHT22;55412;51.350;17.056;2022-11-04T06:16:32;10.20;78.70
68433;DHT22;55412;51.350;17.056;2022-11-04T06:18:58;10.20;78.50
68433;DHT22;55412;51.350;17.056;2022-11-04T06:21:28;10.20;78.50
68433;DHT22;55412;51.350;17.056;2022-11-04T06:23:57;10.20;78.70
68433;DHT22;55412;51.350;17.056;2022-11-04T06:26:25;10.30;78.40
68433;DHT22;55412;51.350;17.056;2022-11-04T06:28:52;10.40;78.20
68433;DHT22;55412;51.350;17.056;2022-11-04T06:31:19;10.50;78.00
68433;DHT22;55412;51.350;17.056;2022-11-04T06:33:46;10.60;77.30
68433;DHT22;55412;51.350;17.056;2022-11-04T06:36:14;10.80;76.90
68433;DHT22;55412;51.350;17.056;2022-11-04T06:38:41;11.00;76.00
68433;DHT22;55412;51.350;17.056;2022-11-04T06:41:11;11.10;75.80
68433;DHT22;55412;51.350;17.056;2022-11-04T06:43:39;11.20;75.60
68433;DHT22;55412;51.350;17.056;2022-11-04T06:46:05;11.20;75.30
68433;DHT22;55412;51.350;17.056;2022-11-04T06:48:31;11.30;75.30
68433;DHT22;55412;51.350;17.056;2022-11-04T06:51:00;11.40;74.80
68433;DHT22;55412;51.350;17.056;2022-11-04T06:53:27;11.40;75.10
68433;DHT22;55412;51.350;17.056;2022-11-04T06:56:01;11.50;74.50
68433;DHT22;55412;51.350;17.056;2022-11-04T06:58:28;11.50;74.20
68433;DHT22;55412;51.350;17.056;2022-11-04T07:00:54;11.50;74.40
68433;DHT22;55412;51.350;17.056;2022-11-04T07:03:20;11.50;74.20
68433;DHT22;55412;51.350;17.056;2022-11-04T07:05:46;11.50;74.20
68433;DHT22;55412;51.350;17.056;2022-11-04T07:08:12;11.60;74.00
68433;DHT22;55412;51.350;17.056;2022-11-04T07:10:38;11.70;73.70
68433;DHT22;55412;51.350;17.056;2022-11-04T07:13:04;11.70;73.80
68433;DHT22;55412;51.350;17.056;2022-11-04T07:15:30;11.90;73.20
68433;DHT22;55412;51.350;17.056;2022-11-04T07:17:58;12.00;72.70
68433;DHT22;55412;51.350;17.056;2022-11-04T07:20:24;12.00;72.70
68433;DHT22;55412;51.350;17.056;2022-11-04T07:22:53;12.00;72.40
68433;DHT22;55412;51.350;17.056;2022-11-04T07:25:19;12.00;72.40
68433;DHT22;55412;51.350;17.056;2022-11-04T07:27:45;12.00;72.60
68433;DHT22;55412;51.350;17.056;2022-11-04T07:30:11;12.00;72.50
68433;DHT22;55412;51.350;17.056;2022-11-04T07:32:37;12.00;72.90
68433;DHT22;55412;51.350;17.056;2022-11-04T07:35:04;12.00;72.70
68433;DHT22;55412;51.350;17.056;2022-11-04T07:37:30;11.90;72.70
68433;DHT22;55412;51.350;17.056;2022-11-04T07:39:56;11.90;72.80
68433;DHT22;55412;51.350;17.056;2022-11-04T07:42:22;12.00;73.00
68433;DHT22;55412;51.350;17.056;2022-11-04T07:44:48;12.00;72.80
68433;DHT22;55412;51.350;17.056;2022-11-04T07:47:14;12.10;72.20
68433;DHT22;55412;51.350;17.056;2022-11-04T07:49:40;12.40;71.40
68433;DHT22;55412;51.350;17.056;2022-11-04T07:52:06;12.50;71.10
68433;DHT22;55412;51.350;17.056;2022-11-04T07:54:32;12.70;70.10
68433;DHT22;55412;51.350;17.056;2022-11-04T07:56:59;12.90;69.60
68433;DHT22;55412;51.350;17.056;2022-11-04T07:59:25;13.20;69.10
68433;DHT22;55412;51.350;17.056;2022-11-04T08:01:51;13.40;68.70
68433;DHT22;55412;51.350;17.056;2022-11-04T08:04:18;13.50;68.10
68433;DHT22;55412;51.350;17.056;2022-11-04T08:06:44;13.60;67.10
68433;DHT22;55412;51.350;17.056;2022-11-04T08:09:10;13.60;67.50
68433;DHT22;55412;51.350;17.056;2022-11-04T08:11:36;13.60;67.20
68433;DHT22;55412;51.350;17.056;2022-11-04T08:14:03;13.60;67.40
68433;DHT22;55412;51.350;17.056;2022-11-04T08:16:29;13.60;67.40
68433;DHT22;55412;51.350;17.056;2022-11-04T08:18:56;13.40;67.60
68433;DHT22;55412;51.350;17.056;2022-11-04T08:21:28;13.40;68.20
68433;DHT22;55412;51.350;17.056;2022-11-04T08:23:55;13.30;68.50
68433;DHT22;55412;51.350;17.056;2022-11-04T08:26:22;13.30;68.50
68433;DHT22;55412;51.350;17.056;2022-11-04T08:28:49;13.20;68.90
68433;DHT22;55412;51.350;17.056;2022-11-04T08:31:24;13.20;69.10
68433;DHT22;55412;51.350;17.056;2022-11-04T08:33:53;13.10;69.20
68433;DHT22;55412;51.350;17.056;2022-11-04T08:36:23;13.00;69.50
68433;DHT22;55412;51.350;17.056;2022-11-04T08:39:02;13.00;69.70
68433;DHT22;55412;51.350;17.056;2022-11-04T08:41:30;12.90;70.10
68433;DHT22;55412;51.350;17.056;2022-11-04T08:43:58;12.80;70.80
68433;DHT22;55412;51.350;17.056;2022-11-04T08:46:28;12.80;70.80
68433;DHT22;55412;51.350;17.056;2022-11-04T08:48:58;12.80;71.00
68433;DHT22;55412;51.350;17.056;2022-11-04T08:51:25;12.80;71.00
68433;DHT22;55412;51.350;17.056;2022-11-04T08:53:52;12.80;71.20
68433;DHT22;55412;51.350;17.056;2022-11-04T08:56:28;12.80;71.20
68433;DHT22;55412;51.350;17.056;2022-11-04T08:58:56;12.80;71.00
68433;DHT22;55412;51.350;17.056;2022-11-04T09:01:24;12.90;71.30
68433;DHT22;55412;51.350;17.056;2022-11-04T09:03:51;12.90;71.20
68433;DHT22;55412;51.350;17.056;2022-11-04T09:06:24;12.90;71.00
68433;DHT22;55412;51.350;17.056;2022-11-04T09:08:52;13.00;71.20
68433;DHT22;55412;51.350;17.056;2022-11-04T09:11:22;13.10;71.10
68433;DHT22;55412;51.350;17.056;2022-11-04T09:13:48;13.10;70.80
68433;DHT22;55412;51.350;17.056;2022-11-04T09:16:15;13.20;70.90
68433;DHT22;55412;51.350;17.056;2022-11-04T09:18:41;13.30;70.70
68433;DHT22;55412;51.350;17.056;2022-11-04T09:21:09;13.30;70.30
68433;DHT22;55412;51.350;17.056;2022-11-04T09:23:35;13.40;70.70
68433;DHT22;55412;51.350;17.056;2022-11-04T09:26:13;13.60;70.60
68433;DHT22;55412;51.350;17.056;2022-11-04T09:28:40;13.80;69.50
68433;DHT22;55412;51.350;17.056;2022-11-04T09:31:08;14.00;68.80
68433;DHT22;55412;51.350;17.056;2022-11-04T09:33:35;14.20;68.10
68433;DHT22;55412;51.350;17.056;2022-11-04T09:36:02;14.40;67.10
68433;DHT22;55412;51.350;17.056;2022-11-04T09:38:28;14.60;67.30
68433;DHT22;55412;51.350;17.056;2022-11-04T09:40:54;14.80;67.20
68433;DHT22;55412;51.350;17.056;2022-11-04T09:46:35;15.40;65.30
68433;DHT22;55412;51.350;17.056;2022-11-04T09:49:06;15.70;65.10
68433;DHT22;55412;51.350;17.056;2022-11-04T09:51:34;15.90;63.00
68433;DHT22;55412;51.350;17.056;2022-11-04T09:54:13;15.80;64.00
68433;DHT22;55412;51.350;17.056;2022-11-04T09:56:44;16.00;62.80
68433;DHT22;55412;51.350;17.056;2022-11-04T09:59:23;15.90;62.90
68433;DHT22;55412;51.350;17.056;2022-11-04T10:05:36;16.10;63.30
68433;DHT22;55412;51.350;17.056;2022-11-04T10:08:40;16.60;62.10
68433;DHT22;55412;51.350;17.056;2022-11-04T10:17:05;17.40;59.50
68433;DHT22;55412;51.350;17.056;2022-11-04T10:25:54;16.90;60.40
68433;DHT22;55412;51.350;17.056;2022-11-04T10:28:50;16.60;61.20
68433;DHT22;55412;51.350;17.056;2022-11-04T10:31:20;16.50;61.50
68433;DHT22;55412;51.350;17.056;2022-11-04T10:34:07;16.30;63.10
68433;DHT22;55412;51.350;17.056;2022-11-04T10:36:41;16.30;62.30
68433;DHT22;55412;51.350;17.056;2022-11-04T10:39:39;16.20;62.50
68433;DHT22;55412;51.350;17.056;2022-11-04T10:42:14;16.10;63.20
68433;DHT22;55412;51.350;17.056;2022-11-04T10:44:42;16.00;62.80
68433;DHT22;55412;51.350;17.056;2022-11-04T10:47:28;15.90;63.00
68433;DHT22;55412;51.350;17.056;2022-11-04T10:50:17;15.90;62.80
68433;DHT22;55412;51.350;17.056;2022-11-04T10:52:47;15.80;62.80
68433;DHT22;55412;51.350;17.056;2022-11-04T10:55:33;15.70;63.60
68433;DHT22;55412;51.350;17.056;2022-11-04T10:58:11;15.60;63.40
68433;DHT22;55412;51.350;17.056;2022-11-04T11:00:42;15.50;64.00
68433;DHT22;55412;51.350;17.056;2022-11-04T11:03:32;15.40;64.40
68433;DHT22;55412;51.350;17.056;2022-11-04T11:08:57;15.20;65.00
68433;DHT22;55412;51.350;17.056;2022-11-04T11:14:35;15.00;65.50
68433;DHT22;55412;51.350;17.056;2022-11-04T11:22:46;14.70;67.30
68433;DHT22;55412;51.350;17.056;2022-11-04T11:25:31;14.60;67.40
68433;DHT22;55412;51.350;17.056;2022-11-04T11:28:20;14.50;67.70
68433;DHT22;55412;51.350;17.056;2022-11-04T11:33:17;14.40;68.20
68433;DHT22;55412;51.350;17.056;2022-11-04T11:36:19;14.40;68.60
68433;DHT22;55412;51.350;17.056;2022-11-04T11:41:32;14.40;69.40
68433;DHT22;55412;51.350;17.056;2022-11-04T11:44:03;14.30;69.20
68433;DHT22;55412;51.350;17.056;2022-11-04T11:46:33;14.30;69.50
68433;DHT22;55412;51.350;17.056;2022-11-04T11:49:04;14.30;69.60
68433;DHT22;55412;51.350;17.056;2022-11-04T11:51:33;14.30;69.70
68433;DHT22;55412;51.350;17.056;2022-11-04T11:54:15;14.30;69.90
68433;DHT22;55412;51.350;17.056;2022-11-04T11:56:54;14.30;69.90
68433;DHT22;55412;51.350;17.056;2022-11-04T11:59:47;14.30;70.10
68433;DHT22;55412;51.350;17.056;2022-11-04T12:06:23;14.20;70.70
68433;DHT22;55412;51.350;17.056;2022-11-04T12:09:08;14.20;70.80
68433;DHT22;55412;51.350;17.056;2022-11-04T12:12:00;14.20;70.80
68433;DHT22;55412;51.350;17.056;2022-11-04T12:14:57;14.20;70.30
68433;DHT22;55412;51.350;17.056;2022-11-04T12:20:50;14.20;70.10
68433;DHT22;55412;51.350;17.056;2022-11-04T12:26:58;14.20;69.90
68433;DHT22;55412;51.350;17.056;2022-11-04T12:32:43;14.10;69.90
68433;DHT22;55412;51.350;17.056;2022-11-04T12:35:23;14.10;70.20
68433;DHT22;55412;51.350;17.056;2022-11-04T12:47:46;14.40;69.50
68433;DHT22;55412;51.350;17.056;2022-11-04T12:50:36;14.40;69.60
68433;DHT22;55412;51.350;17.056;2022-11-04T12:56:11;14.40;68.90
68433;DHT22;55412;51.350;17.056;2022-11-04T13:02:55;14.30;68.90
68433;DHT22;55412;51.350;17.056;2022-11-04T13:11:19;14.10;69.20
68433;DHT22;55412;51.350;17.056;2022-11-04T13:13:57;14.10;69.20
68433;DHT22;55412;51.350;17.056;2022-11-04T13:16:27;14.00;69.40
68433;DHT22;55412;51.350;17.056;2022-11-04T13:18:56;14.00;69.10
68433;DHT22;55412;51.350;17.056;2022-11-04T13:21:27;14.00;69.80
68433;DHT22;55412;51.350;17.056;2022-11-04T13:27:03;13.90;70.00
68433;DHT22;55412;51.350;17.056;2022-11-04T13:29:46;13.90;70.10
68433;DHT22;55412;51.350;17.056;2022-11-04T13:32:25;13.90;70.20
68433;DHT22;55412;51.350;17.056;2022-11-04T13:35:07;13.80;70.50
68433;DHT22;55412;51.350;17.056;2022-11-04T13:38:09;13.80;70.60
68433;DHT22;55412;51.350;17.056;2022-11-04T13:44:56;13.70;71.20
68433;DHT22;55412;51.350;17.056;2022-11-04T13:47:04;13.70;71.40
68433;DHT22;55412;51.350;17.056;2022-11-04T13:49:36;13.70;71.20
68433;DHT22;55412;51.350;17.056;2022-11-04T13:52:11;13.80;70.80
68433;DHT22;55412;51.350;17.056;2022-11-04T13:54:58;13.70;71.20
68433;DHT22;55412;51.350;17.056;2022-11-04T13:57:31;13.70;71.50
68433;DHT22;55412;51.350;17.056;2022-11-04T14:00:20;13.60;71.40
68433;DHT22;55412;51.350;17.056;2022-11-04T14:02:54;13.60;71.50
68433;DHT22;55412;51.350;17.056;2022-11-04T14:08:16;13.60;71.70
68433;DHT22;55412;51.350;17.056;2022-11-04T14:18:50;13.50;72.10
68433;DHT22;55412;51.350;17.056;2022-11-04T14:21:22;13.50;72.50
68433;DHT22;55412;51.350;17.056;2022-11-04T14:23:59;13.40;72.00
68433;DHT22;55412;51.350;17.056;2022-11-04T14:26:50;13.40;71.80
68433;DHT22;55412;51.350;17.056;2022-11-04T14:29:21;13.40;72.00
68433;DHT22;55412;51.350;17.056;2022-11-04T14:31:57;13.40;72.20
68433;DHT22;55412;51.350;17.056;2022-11-04T14:34:33;13.40;72.30
68433;DHT22;55412;51.350;17.056;2022-11-04T14:37:23;13.40;72.30
68433;DHT22;55412;51.350;17.056;2022-11-04T14:39:56;13.30;73.10
68433;DHT22;55412;51.350;17.056;2022-11-04T14:42:43;13.30;73.90
68433;DHT22;55412;51.350;17.056;2022-11-04T14:45:23;13.30;73.40
68433;DHT22;55412;51.350;17.056;2022-11-04T14:48:20;13.20;73.10
68433;DHT22;55412;51.350;17.056;2022-11-04T14:50:50;13.20;74.10
68433;DHT22;55412;51.350;17.056;2022-11-04T14:53:36;13.20;73.40
68433;DHT22;55412;51.350;17.056;2022-11-04T14:58:54;13.20;73.20
68433;DHT22;55412;51.350;17.056;2022-11-04T15:01:27;13.10;73.00
68433;DHT22;55412;51.350;17.056;2022-11-04T15:03:57;13.00;73.20
68433;DHT22;55412;51.350;17.056;2022-11-04T15:06:30;13.00;73.60
68433;DHT22;55412;51.350;17.056;2022-11-04T15:08:56;13.00;73.60
68433;DHT22;55412;51.350;17.056;2022-11-04T15:11:26;13.00;73.40
68433;DHT22;55412;51.350;17.056;2022-11-04T15:16:45;12.80;73.60
68433;DHT22;55412;51.350;17.056;2022-11-04T15:19:28;12.80;73.90
68433;DHT22;55412;51.350;17.056;2022-11-04T15:21:57;12.70;74.70
68433;DHT22;55412;51.350;17.056;2022-11-04T15:24:25;12.60;75.20
68433;DHT22;55412;51.350;17.056;2022-11-04T15:26:53;12.70;74.70
68433;DHT22;55412;51.350;17.056;2022-11-04T15:29:22;12.70;74.80
68433;DHT22;55412;51.350;17.056;2022-11-04T15:32:00;12.70;75.00
68433;DHT22;55412;51.350;17.056;2022-11-04T15:34:29;12.80;74.80
68433;DHT22;55412;51.350;17.056;2022-11-04T15:37:00;12.80;74.80
68433;DHT22;55412;51.350;17.056;2022-11-04T15:42:25;12.70;75.20
68433;DHT22;55412;51.350;17.056;2022-11-04T15:53:53;12.50;76.30
68433;DHT22;55412;51.350;17.056;2022-11-04T15:56:28;12.50;76.40
68433;DHT22;55412;51.350;17.056;2022-11-04T15:59:08;12.40;76.80
68433;DHT22;55412;51.350;17.056;2022-11-04T16:01:49;12.40;77.10
68433;DHT22;55412;51.350;17.056;2022-11-04T16:04:19;12.40;77.20
68433;DHT22;55412;51.350;17.056;2022-11-04T16:07:00;12.30;77.30
68433;DHT22;55412;51.350;17.056;2022-11-04T16:09:49;12.30;77.40
68433;DHT22;55412;51.350;17.056;2022-11-04T16:12:25;12.30;77.50
68433;DHT22;55412;51.350;17.056;2022-11-04T16:14:59;12.30;77.60
68433;DHT22;55412;51.350;17.056;2022-11-04T16:17:26;12.30;77.60
68433;DHT22;55412;51.350;17.056;2022-11-04T16:20:04;12.30;77.80
68433;DHT22;55412;51.350;17.056;2022-11-04T16:22:35;12.30;78.40
68433;DHT22;55412;51.350;17.056;2022-11-04T16:25:06;12.30;78.70
68433;DHT22;55412;51.350;17.056;2022-11-04T16:27:36;12.30;78.80
68433;DHT22;55412;51.350;17.056;2022-11-04T16:30:17;12.20;78.60
68433;DHT22;55412;51.350;17.056;2022-11-04T16:32:52;12.00;79.20
68433;DHT22;55412;51.350;17.056;2022-11-04T16:35:24;11.90;80.10
68433;DHT22;55412;51.350;17.056;2022-11-04T16:37:53;11.80;80.70
68433;DHT22;55412;51.350;17.056;2022-11-04T16:40:23;11.80;80.60
68433;DHT22;55412;51.350;17.056;2022-11-04T16:42:50;11.80;80.50
68433;DHT22;55412;51.350;17.056;2022-11-04T16:45:26;11.90;80.10
68433;DHT22;55412;51.350;17.056;2022-11-04T16:47:55;11.90;80.20
68433;DHT22;55412;51.350;17.056;2022-11-04T16:50:22;11.80;80.40
68433;DHT22;55412;51.350;17.056;2022-11-04T16:52:49;11.80;80.50
68433;DHT22;55412;51.350;17.056;2022-11-04T16:55:16;11.70;80.60
68433;DHT22;55412;51.350;17.056;2022-11-04T16:57:49;11.70;81.00
68433;DHT22;55412;51.350;17.056;2022-11-04T17:00:28;11.60;81.50
68433;DHT22;55412;51.350;17.056;2022-11-04T17:02:58;11.60;81.90
68433;DHT22;55412;51.350;17.056;2022-11-04T17:05:24;11.70;81.90
68433;DHT22;55412;51.350;17.056;2022-11-04T17:07:50;11.80;81.60
68433;DHT22;55412;51.350;17.056;2022-11-04T17:10:23;11.80;81.40
68433;DHT22;55412;51.350;17.056;2022-11-04T17:12:51;11.80;81.80
68433;DHT22;55412;51.350;17.056;2022-11-04T17:15:17;11.80;82.10
68433;DHT22;55412;51.350;17.056;2022-11-04T17:17:44;11.80;82.10
68433;DHT22;55412;51.350;17.056;2022-11-04T17:20:12;11.80;82.10
68433;DHT22;55412;51.350;17.056;2022-11-04T17:22:40;11.70;82.50
68433;DHT22;55412;51.350;17.056;2022-11-04T17:25:21;11.70;82.40
68433;DHT22;55412;51.350;17.056;2022-11-04T17:27:49;11.70;82.50
68433;DHT22;55412;51.350;17.056;2022-11-04T17:30:17;11.70;82.60
68433;DHT22;55412;51.350;17.056;2022-11-04T17:32:45;11.70;82.70
68433;DHT22;55412;51.350;17.056;2022-11-04T17:35:11;11.60;82.80
68433;DHT22;55412;51.350;17.056;2022-11-04T17:37:39;11.60;83.00
68433;DHT22;55412;51.350;17.056;2022-11-04T17:40:06;11.60;83.10
68433;DHT22;55412;51.350;17.056;2022-11-04T17:42:33;11.60;83.50
68433;DHT22;55412;51.350;17.056;2022-11-04T17:45:18;11.60;83.50
68433;DHT22;55412;51.350;17.056;2022-11-04T17:47:45;11.60;83.70
68433;DHT22;55412;51.350;17.056;2022-11-04T17:50:11;11.60;83.40
68433;DHT22;55412;51.350;17.056;2022-11-04T17:52:38;11.50;83.50
68433;DHT22;55412;51.350;17.056;2022-11-04T17:55:07;11.40;83.80
68433;DHT22;55412;51.350;17.056;2022-11-04T17:57:34;11.30;84.20
68433;DHT22;55412;51.350;17.056;2022-11-04T18:00:00;11.30;84.70
68433;DHT22;55412;51.350;17.056;2022-11-04T18:02:30;11.30;84.50
68433;DHT22;55412;51.350;17.056;2022-11-04T18:04:57;11.30;84.50
68433;DHT22;55412;51.350;17.056;2022-11-04T18:07:23;11.30;84.90
68433;DHT22;55412;51.350;17.056;2022-11-04T18:09:49;11.30;85.00
68433;DHT22;55412;51.350;17.056;2022-11-04T18:12:15;11.30;85.10
68433;DHT22;55412;51.350;17.056;2022-11-04T18:14:59;11.30;85.00
68433;DHT22;55412;51.350;17.056;2022-11-04T18:17:25;11.30;85.10